createdAt,value
2023-04-15T00:00:19.606Z,525.00
2023-04-15T00:01:20.025Z,526.00
2023-04-15T00:02:19.685Z,527.00
2023-04-15T00:03:19.812Z,524.00
2023-04-15T00:04:19.574Z,525.00
2023-04-15T00:05:19.540Z,527.00
2023-04-15T00:06:20.525Z,527.00
2023-04-15T00:07:19.511Z,525.00
2023-04-15T00:08:19.548Z,522.00
2023-04-15T00:09:19.486Z,525.00
2023-04-15T00:10:19.487Z,524.00
2023-04-15T00:11:19.488Z,526.00
2023-04-15T00:12:19.473Z,522.00
2023-04-15T00:13:19.484Z,524.00
2023-04-15T00:14:19.453Z,525.00
2023-04-15T00:15:19.467Z,520.00
2023-04-15T00:16:19.465Z,521.00
2023-04-15T00:17:19.482Z,521.00
2023-04-15T00:18:19.528Z,524.00
2023-04-15T00:19:19.541Z,522.00
2023-04-15T00:20:19.581Z,517.00
2023-04-15T00:21:19.587Z,523.00
2023-04-15T00:22:19.611Z,523.00
2023-04-15T00:23:19.647Z,521.00
2023-04-15T00:24:19.671Z,520.00
2023-04-15T00:25:19.713Z,522.00
2023-04-15T00:26:19.747Z,521.00
2023-04-15T00:27:19.785Z,519.00
2023-04-15T00:28:19.815Z,520.00
2023-04-15T00:29:19.859Z,519.00
2023-04-15T00:30:19.905Z,521.00
2023-04-15T00:31:19.942Z,519.00
2023-04-15T00:32:19.953Z,520.00
2023-04-15T00:33:20.055Z,518.00
2023-04-15T00:34:20.005Z,519.00
2023-04-15T00:35:20.053Z,519.00
2023-04-15T00:36:20.076Z,519.00
2023-04-15T00:37:20.107Z,516.00
2023-04-15T00:38:20.154Z,517.00
2023-04-15T00:39:20.179Z,519.00
2023-04-15T00:40:20.239Z,515.00
2023-04-15T00:41:20.254Z,521.00
2023-04-15T00:42:20.287Z,517.00
2023-04-15T00:43:20.365Z,516.00
2023-04-15T00:44:20.357Z,518.00
2023-04-15T00:45:20.394Z,514.00
2023-04-15T00:46:20.538Z,517.00
2023-04-15T00:47:20.459Z,514.00
2023-04-15T00:48:20.494Z,518.00
2023-04-15T00:49:20.538Z,516.00
2023-04-15T00:50:20.574Z,515.00
2023-04-15T00:51:20.622Z,516.00
2023-04-15T00:52:20.636Z,520.00
2023-04-15T00:53:20.702Z,513.00
2023-04-15T00:54:20.718Z,514.00
2023-04-15T00:55:20.744Z,513.00
2023-04-15T00:56:20.753Z,512.00
2023-04-15T00:57:20.814Z,514.00
2023-04-15T00:58:20.827Z,515.00
2023-04-15T00:59:20.888Z,514.00
2023-04-15T01:00:20.932Z,511.00
2023-04-15T01:01:20.983Z,513.00
2023-04-15T01:02:21.087Z,515.00
2023-04-15T01:03:21.144Z,513.00
2023-04-15T01:04:21.110Z,511.00
2023-04-15T01:05:21.101Z,515.00
2023-04-15T01:06:21.106Z,516.00
2023-04-15T01:07:21.144Z,514.00
2023-04-15T01:08:21.186Z,518.00
2023-04-15T01:09:21.242Z,512.00
2023-04-15T01:10:21.255Z,510.00
2023-04-15T01:11:21.285Z,508.00
2023-04-15T01:12:21.320Z,510.00
2023-04-15T01:13:21.361Z,515.00
2023-04-15T01:14:21.426Z,513.00
2023-04-15T01:15:21.434Z,511.00
2023-04-15T01:16:21.485Z,513.00
2023-04-15T01:17:21.555Z,512.00
2023-04-15T01:18:21.563Z,515.00
2023-04-15T01:19:21.630Z,510.00
2023-04-15T01:20:21.634Z,505.00
2023-04-15T01:21:21.668Z,509.00
2023-04-15T01:22:21.696Z,510.00
2023-04-15T01:23:21.742Z,510.00
2023-04-15T01:24:21.784Z,512.00
2023-04-15T01:25:21.852Z,512.00
2023-04-15T01:26:21.857Z,511.00
2023-04-15T01:27:21.892Z,513.00
2023-04-15T01:28:21.924Z,509.00
2023-04-15T01:29:21.982Z,509.00
2023-04-15T01:30:22.003Z,512.00
2023-04-15T01:31:22.089Z,509.00
2023-04-15T01:32:22.097Z,510.00
2023-04-15T01:33:22.138Z,513.00
2023-04-15T01:34:22.189Z,509.00
2023-04-15T01:35:22.211Z,507.00
2023-04-15T01:36:22.254Z,507.00
2023-04-15T01:37:22.281Z,509.00
2023-04-15T01:38:22.344Z,509.00
2023-04-15T01:39:22.410Z,505.00
2023-04-15T01:40:22.400Z,507.00
2023-04-15T01:41:22.452Z,508.00
2023-04-15T01:42:22.457Z,507.00
2023-04-15T01:43:22.504Z,505.00
2023-04-15T01:44:22.563Z,510.00
2023-04-15T01:45:22.614Z,509.00
2023-04-15T01:46:22.721Z,511.00
2023-04-15T01:47:22.780Z,507.00
2023-04-15T01:48:22.721Z,505.00
2023-04-15T01:49:22.791Z,509.00
2023-04-15T01:50:22.806Z,503.00
2023-04-15T01:51:22.836Z,506.00
2023-04-15T01:52:22.871Z,505.00
2023-04-15T01:53:22.939Z,510.00
2023-04-15T01:54:22.973Z,506.00
2023-04-15T01:55:23.007Z,506.00
2023-04-15T01:56:23.036Z,509.00
2023-04-15T01:57:23.076Z,503.00
2023-04-15T01:58:23.136Z,507.00
2023-04-15T01:59:23.216Z,507.00
2023-04-15T02:00:23.205Z,508.00
2023-04-15T02:01:23.342Z,507.00
2023-04-15T02:02:23.362Z,502.00
2023-04-15T02:03:23.467Z,504.00
2023-04-15T02:04:23.416Z,504.00
2023-04-15T02:05:23.463Z,503.00
2023-04-15T02:06:23.480Z,513.00
2023-04-15T02:07:23.524Z,510.00
2023-04-15T02:08:23.581Z,502.00
2023-04-15T02:09:23.629Z,506.00
2023-04-15T02:10:23.642Z,505.00
2023-04-15T02:11:23.678Z,507.00
2023-04-15T02:12:23.737Z,506.00
2023-04-15T02:13:23.770Z,505.00
2023-04-15T02:14:23.856Z,502.00
2023-04-15T02:15:23.911Z,506.00
2023-04-15T02:16:23.917Z,507.00
2023-04-15T02:17:23.942Z,507.00
2023-04-15T02:18:23.962Z,507.00
2023-04-15T02:19:24.029Z,503.00
2023-04-15T02:20:24.097Z,506.00
2023-04-15T02:21:24.178Z,510.00
2023-04-15T02:22:24.169Z,506.00
2023-04-15T02:23:24.209Z,500.00
2023-04-15T02:24:24.296Z,503.00
2023-04-15T02:25:24.291Z,504.00
2023-04-15T02:26:24.362Z,506.00
2023-04-15T02:27:24.382Z,505.00
2023-04-15T02:28:24.480Z,505.00
2023-04-15T02:29:24.485Z,507.00
2023-04-15T02:30:24.536Z,508.00
2023-04-15T02:31:24.579Z,502.00
2023-04-15T02:32:24.655Z,503.00
2023-04-15T02:33:24.675Z,502.00
2023-04-15T02:34:24.723Z,507.00
2023-04-15T02:35:24.738Z,509.00
2023-04-15T02:36:24.802Z,505.00
2023-04-15T02:37:24.841Z,508.00
2023-04-15T02:38:24.869Z,503.00
2023-04-15T02:39:24.918Z,507.00
2023-04-15T02:40:24.996Z,502.00
2023-04-15T02:41:25.010Z,506.00
2023-04-15T02:42:25.043Z,506.00
2023-04-15T02:43:25.096Z,502.00
2023-04-15T02:44:25.216Z,503.00
2023-04-15T02:45:25.224Z,507.00
2023-04-15T02:46:25.255Z,506.00
2023-04-15T02:47:25.300Z,504.00
2023-04-15T02:48:25.349Z,507.00
2023-04-15T02:49:25.390Z,500.00
2023-04-15T02:50:25.438Z,501.00
2023-04-15T02:51:25.462Z,505.00
2023-04-15T02:52:25.478Z,505.00
2023-04-15T02:53:25.545Z,506.00
2023-04-15T02:54:25.581Z,502.00
2023-04-15T02:55:25.703Z,509.00
2023-04-15T02:56:25.685Z,502.00
2023-04-15T02:57:25.719Z,507.00
2023-04-15T02:58:25.786Z,507.00
2023-04-15T02:59:25.847Z,511.00
2023-04-15T03:00:25.868Z,511.00
2023-04-15T03:01:25.950Z,507.00
2023-04-15T03:02:26.063Z,509.00
2023-04-15T03:03:26.060Z,502.00
2023-04-15T03:04:26.068Z,500.00
2023-04-15T03:05:26.134Z,507.00
2023-04-15T03:06:26.185Z,507.00
2023-04-15T03:07:26.180Z,504.00
2023-04-15T03:08:26.244Z,507.00
2023-04-15T03:09:26.285Z,508.00
2023-04-15T03:10:26.375Z,502.00
2023-04-15T03:11:26.417Z,512.00
2023-04-15T03:12:26.446Z,510.00
2023-04-15T03:13:26.493Z,506.00
2023-04-15T03:14:26.554Z,504.00
2023-04-15T03:15:26.651Z,504.00
2023-04-15T03:16:26.630Z,501.00
2023-04-15T03:17:26.700Z,505.00
2023-04-15T03:18:26.713Z,502.00
2023-04-15T03:19:26.781Z,505.00
2023-04-15T03:20:26.887Z,505.00
2023-04-15T03:21:26.881Z,505.00
2023-04-15T03:22:26.921Z,500.00
2023-04-15T03:23:26.945Z,505.00
2023-04-15T03:24:26.994Z,509.00
2023-04-15T03:25:27.074Z,507.00
2023-04-15T03:26:27.085Z,502.00
2023-04-15T03:27:27.123Z,508.00
2023-04-15T03:28:27.189Z,501.00
2023-04-15T03:29:27.233Z,506.00
2023-04-15T03:30:27.274Z,507.00
2023-04-15T03:31:27.362Z,508.00
2023-04-15T03:32:27.453Z,504.00
2023-04-15T03:33:27.434Z,510.00
2023-04-15T03:34:27.457Z,508.00
2023-04-15T03:35:27.505Z,505.00
2023-04-15T03:36:27.561Z,502.00
2023-04-15T03:37:27.599Z,502.00
2023-04-15T03:38:27.668Z,502.00
2023-04-15T03:39:27.704Z,505.00
2023-04-15T03:40:27.797Z,504.00
2023-04-15T03:41:27.796Z,505.00
2023-04-15T03:42:27.907Z,504.00
2023-04-15T03:43:27.936Z,507.00
2023-04-15T03:44:27.978Z,509.00
2023-04-15T03:45:28.014Z,510.00
2023-04-15T03:46:28.117Z,505.00
2023-04-15T03:47:28.162Z,509.00
2023-04-15T03:48:28.179Z,507.00
2023-04-15T03:49:28.230Z,502.00
2023-04-15T03:50:28.300Z,506.00
2023-04-15T03:51:28.321Z,506.00
2023-04-15T03:52:28.395Z,508.00
2023-04-15T03:53:28.458Z,510.00
2023-04-15T03:54:28.485Z,509.00
2023-04-15T03:55:28.558Z,505.00
2023-04-15T03:56:28.622Z,504.00
2023-04-15T03:57:28.674Z,506.00
2023-04-15T03:58:28.734Z,504.00
2023-04-15T03:59:28.768Z,505.00
2023-04-15T04:00:28.848Z,509.00
2023-04-15T04:01:28.907Z,505.00
2023-04-15T04:02:29.051Z,506.00
2023-04-15T04:03:29.145Z,506.00
2023-04-15T04:04:29.106Z,505.00
2023-04-15T04:05:29.104Z,508.00
2023-04-15T04:06:29.157Z,507.00
2023-04-15T04:07:29.246Z,506.00
2023-04-15T04:08:29.301Z,508.00
2023-04-15T04:09:29.320Z,508.00
2023-04-15T04:10:29.391Z,506.00
2023-04-15T04:11:29.432Z,506.00
2023-04-15T04:12:29.490Z,509.00
2023-04-15T04:13:29.549Z,503.00
2023-04-15T04:14:29.600Z,503.00
2023-04-15T04:15:29.710Z,507.00
2023-04-15T04:16:29.819Z,506.00
2023-04-15T04:17:29.819Z,510.00
2023-04-15T04:18:29.824Z,505.00
2023-04-15T04:19:29.912Z,509.00
2023-04-15T04:20:29.941Z,501.00
2023-04-15T04:21:30.043Z,506.00
2023-04-15T04:22:30.062Z,506.00
2023-04-15T04:23:30.128Z,504.00
2023-04-15T04:24:30.167Z,505.00
2023-04-15T04:25:30.228Z,504.00
2023-04-15T04:26:30.272Z,505.00
2023-04-15T04:27:30.358Z,506.00
2023-04-15T04:28:30.398Z,504.00
2023-04-15T04:29:30.488Z,506.00
2023-04-15T04:30:30.526Z,502.00
2023-04-15T04:31:30.623Z,504.00
2023-04-15T04:32:30.637Z,505.00
2023-04-15T04:33:30.688Z,504.00
2023-04-15T04:34:30.748Z,504.00
2023-04-15T04:35:30.838Z,506.00
2023-04-15T04:36:30.872Z,506.00
2023-04-15T04:37:30.919Z,506.00
2023-04-15T04:38:31.000Z,508.00
2023-04-15T04:39:31.048Z,505.00
2023-04-15T04:40:31.104Z,504.00
2023-04-15T04:41:31.202Z,510.00
2023-04-15T04:42:31.224Z,508.00
2023-04-15T04:43:31.259Z,505.00
2023-04-15T04:44:31.346Z,508.00
2023-04-15T04:45:31.422Z,504.00
2023-04-15T04:46:31.461Z,505.00
2023-04-15T04:47:31.530Z,504.00
2023-04-15T04:48:31.559Z,503.00
2023-04-15T04:49:31.635Z,503.00
2023-04-15T04:50:31.712Z,507.00
2023-04-15T04:51:31.767Z,503.00
2023-04-15T04:52:31.804Z,506.00
2023-04-15T04:53:31.875Z,506.00
2023-04-15T04:54:31.941Z,504.00
2023-04-15T04:55:32.018Z,507.00
2023-04-15T04:56:32.058Z,504.00
2023-04-15T04:57:32.153Z,510.00
2023-04-15T04:58:32.168Z,505.00
2023-04-15T04:59:32.244Z,509.00
2023-04-15T05:00:32.308Z,511.00
2023-04-15T05:01:32.377Z,503.00
2023-04-15T05:02:32.536Z,507.00
2023-04-15T05:03:32.528Z,509.00
2023-04-15T05:04:32.534Z,511.00
2023-04-15T05:05:32.614Z,507.00
2023-04-15T05:06:32.696Z,513.00
2023-04-15T05:07:32.717Z,504.00
2023-04-15T05:08:32.773Z,514.00
2023-04-15T05:09:32.844Z,508.00
2023-04-15T05:10:32.918Z,504.00
2023-04-15T05:11:32.966Z,504.00
2023-04-15T05:12:33.026Z,504.00
2023-04-15T05:13:33.091Z,505.00
2023-04-15T05:14:33.170Z,508.00
2023-04-15T05:15:33.252Z,508.00
2023-04-15T05:16:33.281Z,503.00
2023-04-15T05:17:33.405Z,508.00
2023-04-15T05:18:33.382Z,508.00
2023-04-15T05:19:33.492Z,508.00
2023-04-15T05:20:33.526Z,508.00
2023-04-15T05:21:33.591Z,512.00
2023-04-15T05:22:33.613Z,507.00
2023-04-15T05:23:33.666Z,513.00
2023-04-15T05:24:33.752Z,507.00
2023-04-15T05:25:33.817Z,505.00
2023-04-15T05:26:33.888Z,505.00
2023-04-15T05:27:33.902Z,506.00
2023-04-15T05:28:33.977Z,507.00
2023-04-15T05:29:34.041Z,506.00
2023-04-15T05:30:34.124Z,507.00
2023-04-15T05:31:34.204Z,508.00
2023-04-15T05:32:34.239Z,508.00
2023-04-15T05:33:34.280Z,504.00
2023-04-15T05:34:34.407Z,506.00
2023-04-15T05:35:34.422Z,506.00
2023-04-15T05:36:34.485Z,508.00
2023-04-15T05:37:34.501Z,506.00
2023-04-15T05:38:34.566Z,504.00
2023-04-15T05:39:34.672Z,506.00
2023-04-15T05:40:34.678Z,506.00
2023-04-15T05:41:34.785Z,506.00
2023-04-15T05:42:34.847Z,508.00
2023-04-15T05:43:34.856Z,509.00
2023-04-15T05:44:34.928Z,510.00
2023-04-15T05:45:34.986Z,504.00
2023-04-15T05:46:35.156Z,506.00
2023-04-15T05:47:35.148Z,506.00
2023-04-15T05:48:35.159Z,506.00
2023-04-15T05:49:35.265Z,504.00
2023-04-15T05:50:35.271Z,507.00
2023-04-15T05:51:35.363Z,505.00
2023-04-15T05:52:35.400Z,508.00
2023-04-15T05:53:35.475Z,505.00
2023-04-15T05:54:35.554Z,505.00
2023-04-15T05:55:35.563Z,504.00
2023-04-15T05:56:35.648Z,501.00
2023-04-15T05:57:35.705Z,502.00
2023-04-15T05:58:35.745Z,504.00
2023-04-15T05:59:36.642Z,505.00
2023-04-15T06:00:35.887Z,504.00
2023-04-15T06:01:35.967Z,503.00
2023-04-15T06:02:36.066Z,504.00
2023-04-15T06:03:36.137Z,504.00
2023-04-15T06:04:36.234Z,501.00
2023-04-15T06:05:36.185Z,504.00
2023-04-15T06:06:36.229Z,509.00
2023-04-15T06:07:36.280Z,508.00
2023-04-15T06:08:36.356Z,504.00
2023-04-15T06:09:36.418Z,510.00
2023-04-15T06:10:36.573Z,506.00
2023-04-15T06:11:36.533Z,508.00
2023-04-15T06:12:36.563Z,509.00
2023-04-15T06:13:36.638Z,509.00
2023-04-15T06:14:36.678Z,504.00
2023-04-15T06:15:36.779Z,508.00
2023-04-15T06:16:36.946Z,506.00
2023-04-15T06:17:36.899Z,509.00
2023-04-15T06:18:36.915Z,509.00
2023-04-15T06:19:37.684Z,506.00
2023-04-15T06:20:37.046Z,511.00
2023-04-15T06:21:37.091Z,507.00
2023-04-15T06:22:37.160Z,504.00
2023-04-15T06:23:37.212Z,504.00
2023-04-15T06:24:37.325Z,510.00
2023-04-15T06:25:37.330Z,512.00
2023-04-15T06:26:37.384Z,503.00
2023-04-15T06:27:37.453Z,502.00
2023-04-15T06:28:37.493Z,503.00
2023-04-15T06:29:37.571Z,508.00
2023-04-15T06:30:37.609Z,510.00
2023-04-15T06:31:37.697Z,506.00
2023-04-15T06:32:37.755Z,506.00
2023-04-15T06:33:37.806Z,505.00
2023-04-15T06:34:37.816Z,505.00
2023-04-15T06:35:37.872Z,501.00
2023-04-15T06:36:37.925Z,504.00
2023-04-15T06:37:37.982Z,504.00
2023-04-15T06:38:38.069Z,501.00
2023-04-15T06:39:38.660Z,505.00
2023-04-15T06:40:38.155Z,504.00
2023-04-15T06:41:38.201Z,502.00
2023-04-15T06:42:38.300Z,506.00
2023-04-15T06:43:38.277Z,506.00
2023-04-15T06:44:38.374Z,508.00
2023-04-15T06:45:38.478Z,503.00
2023-04-15T06:46:38.486Z,502.00
2023-04-15T06:47:38.524Z,506.00
2023-04-15T06:48:38.570Z,504.00
2023-04-15T06:49:38.640Z,503.00
2023-04-15T06:50:38.686Z,508.00
2023-04-15T06:51:38.740Z,504.00
2023-04-15T06:52:38.820Z,505.00
2023-04-15T06:53:38.857Z,500.00
2023-04-15T06:54:38.929Z,510.00
2023-04-15T06:55:38.990Z,510.00
2023-04-15T06:56:39.032Z,507.00
2023-04-15T06:57:39.110Z,510.00
2023-04-15T06:58:39.185Z,508.00
2023-04-15T06:59:39.225Z,507.00
2023-04-15T07:00:39.316Z,508.00
2023-04-15T07:01:39.303Z,507.00
2023-04-15T07:02:39.617Z,506.00
2023-04-15T07:03:39.414Z,507.00
2023-04-15T07:04:39.520Z,503.00
2023-04-15T07:05:39.530Z,504.00
2023-04-15T07:06:39.590Z,509.00
2023-04-15T07:07:39.646Z,503.00
2023-04-15T07:08:39.672Z,505.00
2023-04-15T07:09:40.197Z,510.00
2023-04-15T07:10:39.778Z,508.00
2023-04-15T07:11:39.834Z,509.00
2023-04-15T07:12:39.904Z,510.00
2023-04-15T07:13:39.943Z,508.00
2023-04-15T07:14:40.021Z,510.00
2023-04-15T07:15:40.086Z,506.00
2023-04-15T07:16:40.120Z,504.00
2023-04-15T07:17:40.207Z,507.00
2023-04-15T07:18:40.189Z,506.00
2023-04-15T07:19:40.272Z,510.00
2023-04-15T07:20:40.331Z,512.00
2023-04-15T07:21:41.830Z,506.00
2023-04-15T07:22:40.419Z,512.00
2023-04-15T07:23:40.445Z,517.00
2023-04-15T07:24:40.456Z,512.00
2023-04-15T07:25:40.550Z,508.00
2023-04-15T07:26:40.569Z,506.00
2023-04-15T07:27:40.606Z,514.00
2023-04-15T07:28:40.635Z,511.00
2023-04-15T07:29:40.731Z,506.00
2023-04-15T07:30:40.759Z,508.00
2023-04-15T07:31:40.775Z,509.00
2023-04-15T07:32:40.845Z,510.00
2023-04-15T07:33:40.880Z,514.00
2023-04-15T07:34:40.936Z,514.00
2023-04-15T07:35:40.956Z,514.00
2023-04-15T07:36:40.988Z,509.00
2023-04-15T07:37:41.018Z,511.00
2023-04-15T07:38:41.063Z,511.00
2023-04-15T07:39:41.123Z,511.00
2023-04-15T07:40:41.143Z,517.00
2023-04-15T07:41:41.166Z,510.00
2023-04-15T07:42:41.468Z,511.00
2023-04-15T07:43:41.239Z,514.00
2023-04-15T07:44:41.312Z,514.00
2023-04-15T07:45:41.342Z,513.00
2023-04-15T07:46:41.426Z,509.00
2023-04-15T07:47:41.422Z,511.00
2023-04-15T07:48:41.430Z,514.00
2023-04-15T07:49:41.428Z,512.00
2023-04-15T07:50:41.459Z,511.00
2023-04-15T07:51:41.517Z,516.00
2023-04-15T07:52:41.537Z,513.00
2023-04-15T07:53:41.556Z,515.00
2023-04-15T07:54:41.570Z,509.00
2023-04-15T07:55:41.628Z,514.00
2023-04-15T07:56:41.645Z,511.00
2023-04-15T07:57:41.710Z,513.00
2023-04-15T07:58:41.700Z,510.00
2023-04-15T07:59:41.730Z,511.00
2023-04-15T08:00:41.738Z,511.00
2023-04-15T08:01:41.788Z,511.00
2023-04-15T08:02:41.957Z,516.00
2023-04-15T08:03:41.906Z,508.00
2023-04-15T08:04:42.119Z,512.00
2023-04-15T08:05:41.917Z,509.00
2023-04-15T08:06:41.906Z,510.00
2023-04-15T08:07:41.955Z,510.00
2023-04-15T08:08:41.969Z,512.00
2023-04-15T08:09:42.004Z,508.00
2023-04-15T08:10:42.043Z,511.00
2023-04-15T08:11:42.064Z,514.00
2023-04-15T08:12:42.128Z,509.00
2023-04-15T08:13:42.101Z,511.00
2023-04-15T08:14:42.128Z,511.00
2023-04-15T08:15:42.169Z,507.00
2023-04-15T08:16:42.195Z,511.00
2023-04-15T08:17:42.262Z,509.00
2023-04-15T08:18:42.263Z,510.00
2023-04-15T08:19:42.244Z,507.00
2023-04-15T08:20:42.255Z,505.00
2023-04-15T08:21:42.276Z,507.00
2023-04-15T08:22:42.317Z,511.00
2023-04-15T08:23:42.307Z,511.00
2023-04-15T08:24:42.345Z,509.00
2023-04-15T08:25:42.369Z,507.00
2023-04-15T08:26:42.419Z,509.00
2023-04-15T08:27:42.382Z,509.00
2023-04-15T08:28:42.395Z,509.00
2023-04-15T08:29:42.406Z,505.00
2023-04-15T08:30:42.431Z,507.00
2023-04-15T08:31:42.489Z,508.00
2023-04-15T08:32:42.515Z,506.00
2023-04-15T08:33:42.485Z,510.00
2023-04-15T08:34:42.483Z,509.00
2023-04-15T08:35:42.497Z,509.00
2023-04-15T08:36:42.518Z,513.00
2023-04-15T08:37:42.591Z,512.00
2023-04-15T08:38:42.522Z,512.00
2023-04-15T08:39:42.592Z,512.00
2023-04-15T08:40:42.565Z,507.00
2023-04-15T08:41:42.580Z,509.00
2023-04-15T08:42:43.690Z,508.00
2023-04-15T08:43:42.562Z,511.00
2023-04-15T08:44:42.583Z,510.00
2023-04-15T08:45:42.595Z,507.00
2023-04-15T08:46:42.693Z,509.00
2023-04-15T08:47:42.620Z,505.00
2023-04-15T08:48:42.618Z,514.00
2023-04-15T08:49:42.628Z,509.00
2023-04-15T08:50:42.630Z,513.00
2023-04-15T08:51:42.650Z,508.00
2023-04-15T08:52:42.648Z,511.00
2023-04-15T08:53:42.668Z,510.00
2023-04-15T08:54:42.672Z,512.00
2023-04-15T08:55:42.690Z,510.00
2023-04-15T08:56:42.764Z,508.00
2023-04-15T08:57:42.676Z,512.00
2023-04-15T08:58:42.718Z,510.00
2023-04-15T08:59:42.713Z,511.00
2023-04-15T09:00:42.689Z,508.00
2023-04-15T09:01:42.941Z,512.00
2023-04-15T09:02:42.920Z,506.00
2023-04-15T09:03:42.932Z,514.00
2023-04-15T09:04:42.724Z,512.00
2023-04-15T09:05:42.754Z,513.00
2023-04-15T09:06:42.731Z,511.00
2023-04-15T09:07:42.781Z,513.00
2023-04-15T09:08:42.744Z,514.00
2023-04-15T09:09:42.768Z,510.00
2023-04-15T09:10:42.763Z,511.00
2023-04-15T09:11:42.786Z,512.00
2023-04-15T09:12:42.755Z,513.00
2023-04-15T09:13:42.775Z,511.00
2023-04-15T09:14:42.799Z,510.00
2023-04-15T09:15:42.759Z,510.00
2023-04-15T09:16:42.835Z,509.00
2023-04-15T09:17:42.803Z,513.00
2023-04-15T09:18:42.784Z,509.00
2023-04-15T09:19:42.776Z,510.00
2023-04-15T09:20:42.818Z,513.00
2023-04-15T09:21:42.778Z,512.00
2023-04-15T09:22:42.811Z,512.00
2023-04-15T09:23:42.776Z,510.00
2023-04-15T09:24:42.772Z,514.00
2023-04-15T09:25:42.789Z,511.00
2023-04-15T09:26:42.774Z,501.00
2023-04-15T09:27:42.774Z,504.00
2023-04-15T09:28:42.757Z,506.00
2023-04-15T09:29:42.789Z,511.00
2023-04-15T09:30:42.820Z,508.00
2023-04-15T09:31:42.778Z,506.00
2023-04-15T09:32:42.830Z,506.00
2023-04-15T09:33:43.246Z,504.00
2023-04-15T09:34:42.816Z,501.00
2023-04-15T09:35:42.863Z,506.00
2023-04-15T09:36:42.873Z,513.00
2023-04-15T09:37:42.859Z,513.00
2023-04-15T09:38:42.898Z,507.00
2023-04-15T09:39:42.909Z,504.00
2023-04-15T09:40:42.926Z,505.00
2023-04-15T09:41:42.935Z,501.00
2023-04-15T09:42:42.969Z,505.00
2023-04-15T09:43:42.976Z,504.00
2023-04-15T09:44:42.944Z,500.00
2023-04-15T09:45:42.993Z,508.00
2023-04-15T09:46:42.970Z,510.00
2023-04-15T09:47:43.033Z,509.00
2023-04-15T09:48:43.039Z,511.00
2023-04-15T09:49:43.099Z,505.00
2023-04-15T09:50:43.017Z,509.00
2023-04-15T09:51:48.636Z,511.00
2023-04-15T09:52:44.008Z,511.00
2023-04-15T09:53:42.989Z,512.00
2023-04-15T09:54:42.980Z,512.00
2023-04-15T09:55:42.987Z,511.00
2023-04-15T09:56:43.037Z,515.00
2023-04-15T09:57:42.978Z,518.00
2023-04-15T09:58:42.994Z,517.00
2023-04-15T09:59:42.960Z,521.00
2023-04-15T10:00:42.993Z,526.00
2023-04-15T10:01:43.024Z,521.00
2023-04-15T10:02:43.082Z,519.00
2023-04-15T10:03:43.098Z,521.00
2023-04-15T10:04:42.915Z,516.00
2023-04-15T10:05:42.921Z,511.00
2023-04-15T10:06:42.941Z,515.00
2023-04-15T10:07:42.937Z,521.00
2023-04-15T10:08:42.926Z,517.00
2023-04-15T10:09:42.917Z,515.00
2023-04-15T10:10:42.913Z,517.00
2023-04-15T10:11:42.898Z,513.00
2023-04-15T10:12:42.898Z,516.00
2023-04-15T10:13:42.916Z,513.00
2023-04-15T10:14:42.956Z,516.00
2023-04-15T10:15:42.971Z,520.00
2023-04-15T10:16:42.927Z,526.00
2023-04-15T10:17:43.066Z,522.00
2023-04-15T10:18:42.956Z,523.00
2023-04-15T10:19:42.975Z,526.00
2023-04-15T10:20:42.993Z,523.00
2023-04-15T10:21:42.961Z,523.00
2023-04-15T10:22:42.968Z,523.00
2023-04-15T10:23:43.013Z,525.00
2023-04-15T10:24:43.090Z,524.00
2023-04-15T10:25:43.095Z,523.00
2023-04-15T10:26:43.108Z,521.00
2023-04-15T10:27:43.113Z,521.00
2023-04-15T10:28:43.149Z,512.00
2023-04-15T10:29:43.128Z,504.00
2023-04-15T10:30:43.148Z,507.00
2023-04-15T10:31:43.249Z,514.00
2023-04-15T10:32:43.158Z,504.00
2023-04-15T10:33:43.139Z,506.00
2023-04-15T10:34:43.174Z,501.00
2023-04-15T10:35:43.184Z,500.00
2023-04-15T10:36:43.216Z,520.00
2023-04-15T10:37:43.234Z,513.00
2023-04-15T10:38:43.190Z,522.00
2023-04-15T10:39:43.325Z,513.00
2023-04-15T10:40:43.213Z,514.00
2023-04-15T10:41:43.213Z,500.00
2023-04-15T10:42:43.258Z,504.00
2023-04-15T10:43:43.272Z,508.00
2023-04-15T10:44:43.294Z,518.00
2023-04-15T10:45:43.309Z,520.00
2023-04-15T10:46:43.366Z,516.00
2023-04-15T10:47:43.372Z,513.00
2023-04-15T10:48:43.317Z,513.00
2023-04-15T10:49:43.341Z,518.00
2023-04-15T10:50:43.298Z,517.00
2023-04-15T10:51:43.318Z,522.00
2023-04-15T10:52:43.338Z,519.00
2023-04-15T10:53:43.306Z,524.00
2023-04-15T10:54:43.339Z,526.00
2023-04-15T10:55:43.344Z,523.00
2023-04-15T10:56:43.365Z,522.00
2023-04-15T10:57:43.376Z,517.00
2023-04-15T10:58:43.347Z,505.00
2023-04-15T10:59:43.385Z,502.00
2023-04-15T11:00:43.383Z,503.00
2023-04-15T11:01:43.362Z,514.00
2023-04-15T11:02:43.618Z,524.00
2023-04-15T11:03:43.601Z,506.00
2023-04-15T11:04:43.424Z,507.00
2023-04-15T11:05:43.338Z,516.00
2023-04-15T11:06:43.338Z,513.00
2023-04-15T11:07:43.304Z,518.00
2023-04-15T11:08:43.309Z,516.00
2023-04-15T11:09:43.331Z,527.00
2023-04-15T11:10:43.355Z,518.00
2023-04-15T11:11:44.393Z,524.00
2023-04-15T11:12:43.304Z,526.00
2023-04-15T11:13:43.316Z,531.00
2023-04-15T11:14:43.310Z,527.00
2023-04-15T11:15:43.304Z,514.00
2023-04-15T11:16:43.291Z,510.00
2023-04-15T11:17:44.704Z,512.00
2023-04-15T11:18:43.264Z,513.00
2023-04-15T11:19:43.262Z,521.00
2023-04-15T11:20:43.256Z,522.00
2023-04-15T11:21:43.246Z,510.00
2023-04-15T11:22:43.227Z,509.00
2023-04-15T11:23:43.223Z,508.00
2023-04-15T11:24:43.265Z,517.00
2023-04-15T11:25:43.541Z,518.00
2023-04-15T11:26:43.208Z,526.00
2023-04-15T11:27:43.214Z,522.00
2023-04-15T11:28:43.225Z,516.00
2023-04-15T11:29:43.213Z,506.00
2023-04-15T11:30:43.251Z,504.00
2023-04-15T11:31:43.211Z,513.00
2023-04-15T11:32:43.181Z,504.00
2023-04-15T11:33:43.155Z,515.00
2023-04-15T11:34:43.163Z,517.00
2023-04-15T11:35:43.194Z,512.00
2023-04-15T11:36:43.172Z,514.00
2023-04-15T11:37:43.135Z,520.00
2023-04-15T11:38:43.152Z,534.00
2023-04-15T11:39:43.139Z,530.00
2023-04-15T11:40:45.282Z,525.00
2023-04-15T11:41:43.115Z,525.00
2023-04-15T11:42:49.237Z,525.00
2023-04-15T11:43:44.131Z,525.00
2023-04-15T11:44:43.137Z,526.00
2023-04-15T11:45:43.120Z,527.00
2023-04-15T11:46:45.103Z,530.00
2023-04-15T11:47:43.249Z,538.00
2023-04-15T11:48:43.146Z,534.00
2023-04-15T11:49:43.151Z,533.00
2023-04-15T11:50:43.333Z,534.00
2023-04-15T11:51:43.152Z,536.00
2023-04-15T11:52:43.135Z,541.00
2023-04-15T11:53:43.204Z,535.00
2023-04-15T11:54:43.162Z,537.00
2023-04-15T11:55:43.141Z,538.00
2023-04-15T11:56:43.138Z,540.00
2023-04-15T11:57:43.174Z,541.00
2023-04-15T11:58:43.136Z,548.00
2023-04-15T11:59:45.246Z,531.00
2023-04-15T12:00:43.142Z,533.00
2023-04-15T12:01:43.141Z,540.00
2023-04-15T12:02:43.211Z,542.00
2023-04-15T12:03:43.273Z,528.00
2023-04-15T12:04:43.304Z,531.00
2023-04-15T12:05:43.143Z,532.00
2023-04-15T12:06:43.098Z,522.00
2023-04-15T12:07:43.099Z,517.00
2023-04-15T12:08:43.085Z,526.00
2023-04-15T12:09:43.100Z,522.00
2023-04-15T12:10:43.079Z,524.00
2023-04-15T12:11:43.054Z,527.00
2023-04-15T12:12:43.102Z,528.00
2023-04-15T12:13:43.056Z,518.00
2023-04-15T12:14:43.061Z,514.00
2023-04-15T12:15:43.322Z,512.00
2023-04-15T12:16:48.224Z,518.00
2023-04-15T12:17:51.503Z,518.00
2023-04-15T12:18:44.008Z,519.00
2023-04-15T12:19:43.029Z,520.00
2023-04-15T12:20:43.019Z,518.00
2023-04-15T12:21:42.991Z,518.00
2023-04-15T12:22:43.087Z,522.00
2023-04-15T12:23:42.971Z,517.00
2023-04-15T12:24:43.051Z,519.00
2023-04-15T12:25:42.969Z,521.00
2023-04-15T12:26:42.973Z,519.00
2023-04-15T12:27:42.949Z,513.00
2023-04-15T12:28:42.939Z,513.00